Terminal Aerodrome Forecast
Issued by NWS

Home | Current Version | Previous Version | Text Only | Print | Product List | Glossary On
Versions: 1 2 3 4 5 6 7 8 9 10 11 12 13 14 15
000
FTUS44 KLZK 201724
TAFLIT
TAF
KLIT 201724Z 2018/2118 10010G20KT P6SM SCT250
     FM210000 08005KT P6SM SCT250
     FM211500 11008KT P6SM OVC250=

USA.gov is the U.S. government's official web portal to all federal, state and local government web resources and services.